KFYV

Drake Field Airport

Fayetteville, Arkansas, USA
METAR KFYV 170253Z AUTO 00000KT 10SM CLR 08/07 A3031 RMK AO2 SLP266 T00830067 51015
Observed Flight Rules
Oct-17 @ 02:53 UTC (44 minutes ago) Visual Flight Rules
Visibility Clouds
10 miles
  • Clear skies
Temperatures Readings
Current 8°C / 46°F
Dewpoint 7°C / 45°F
Humidity 93%
Altimeter 30.31" Hg
Pressure 1026.6 hPa
Elevation 379
METAR KFYV 170253Z AUTO 00000KT 10SM CLR 08/07 A3031 RMK AO2 SLP266 T00830067 51015
Observed Flight Rules
Oct-17 @ 02:53 UTC
(44 minutes ago)
VFR
Clouds
  • Clear skies
Temperature Dewpoint
8°C / 46°F 7°C / 45°F
Humidity Altimeter Pressure
93% 30.31" Hg 1026.6 hPa